createdAt,value
2018-04-11T00:00:06.550Z,47.84
2018-04-11T00:01:06.357Z,47.85
2018-04-11T00:02:06.345Z,47.83
2018-04-11T00:03:06.429Z,47.84
2018-04-11T00:04:06.401Z,47.8
2018-04-11T00:05:06.418Z,47.82
2018-04-11T00:06:06.386Z,47.77
2018-04-11T00:07:06.371Z,47.8
2018-04-11T00:08:06.365Z,47.84
2018-04-11T00:09:06.358Z,47.79
2018-04-11T00:10:06.463Z,47.84
2018-04-11T00:11:06.394Z,47.88
2018-04-11T00:12:06.396Z,47.85
2018-04-11T00:13:06.357Z,47.87
2018-04-11T00:14:06.367Z,47.88
2018-04-11T00:15:06.395Z,47.82
2018-04-11T00:16:06.381Z,47.84
2018-04-11T00:17:06.390Z,47.83
2018-04-11T00:18:06.585Z,47.78
2018-04-11T00:19:06.389Z,47.87
2018-04-11T00:20:06.417Z,47.85
2018-04-11T00:21:06.394Z,47.82
2018-04-11T00:22:06.396Z,47.79
2018-04-11T00:23:06.375Z,47.79
2018-04-11T00:24:06.639Z,47.79
2018-04-11T00:25:06.719Z,47.91
2018-04-11T00:26:06.477Z,47.81
2018-04-11T00:27:06.540Z,47.79
2018-04-11T00:28:06.438Z,47.88
2018-04-11T00:29:06.389Z,47.84
2018-04-11T00:30:06.387Z,47.77
2018-04-11T00:31:06.862Z,47.85
2018-04-11T00:32:06.476Z,47.8
2018-04-11T00:33:06.633Z,47.82
2018-04-11T00:34:06.375Z,47.8
2018-04-11T00:35:06.698Z,47.83
2018-04-11T00:36:06.344Z,47.75
2018-04-11T00:37:06.375Z,47.84
2018-04-11T00:38:06.398Z,47.86
2018-04-11T00:39:06.519Z,47.81
2018-04-11T00:40:06.476Z,47.83
2018-04-11T00:41:06.343Z,47.8
2018-04-11T00:42:06.640Z,47.77
2018-04-11T00:43:06.350Z,47.83
2018-04-11T00:44:06.369Z,47.82
2018-04-11T00:45:06.444Z,47.78
2018-04-11T00:46:06.443Z,47.8
2018-04-11T00:47:06.341Z,47.84
2018-04-11T00:48:06.369Z,47.84
2018-04-11T00:49:06.570Z,47.84
2018-04-11T00:50:06.378Z,47.81
2018-04-11T00:51:06.347Z,47.8
2018-04-11T00:52:06.393Z,47.82
2018-04-11T00:53:06.426Z,47.79
2018-04-11T00:54:06.388Z,47.79
2018-04-11T00:55:06.353Z,47.86
2018-04-11T00:56:06.361Z,47.81
2018-04-11T00:57:06.325Z,47.78
2018-04-11T00:58:06.351Z,47.86
2018-04-11T00:59:06.348Z,47.79
2018-04-11T01:00:06.331Z,47.8
2018-04-11T01:01:06.361Z,47.83
2018-04-11T01:02:06.389Z,47.8
2018-04-11T01:03:06.353Z,47.75
2018-04-11T01:04:06.368Z,47.77
2018-04-11T01:05:06.589Z,47.73
2018-04-11T01:06:06.374Z,47.77
2018-04-11T01:07:06.357Z,47.82
2018-04-11T01:08:06.663Z,47.84
2018-04-11T01:09:06.364Z,47.77
2018-04-11T01:10:06.375Z,47.78
2018-04-11T01:11:06.375Z,47.81
2018-04-11T01:12:06.327Z,47.76
2018-04-11T01:13:06.568Z,47.78
2018-04-11T01:14:06.432Z,47.77
2018-04-11T01:15:06.663Z,47.73
2018-04-11T01:16:06.553Z,47.83
2018-04-11T01:17:06.646Z,47.82
2018-04-11T01:18:06.351Z,47.76
2018-04-11T01:19:06.349Z,47.82
2018-04-11T01:20:06.434Z,47.76
2018-04-11T01:21:06.487Z,47.76
2018-04-11T01:22:06.742Z,47.82
2018-04-11T01:23:06.372Z,47.73
2018-04-11T01:24:06.355Z,47.76
2018-04-11T01:25:06.650Z,47.82
2018-04-11T01:26:06.367Z,47.76
2018-04-11T01:27:06.391Z,47.75
2018-04-11T01:28:06.602Z,47.76
2018-04-11T01:29:06.565Z,47.76
2018-04-11T01:30:06.342Z,47.73
2018-04-11T01:31:06.337Z,47.76
2018-04-11T01:32:06.409Z,47.73
2018-04-11T01:33:06.709Z,47.74
2018-04-11T01:34:06.377Z,47.77
2018-04-11T01:35:06.322Z,47.8
2018-04-11T01:36:06.340Z,47.74
2018-04-11T01:37:06.335Z,47.8
2018-04-11T01:38:06.574Z,47.76
2018-04-11T01:39:06.541Z,47.7
2018-04-11T01:40:06.327Z,47.77
2018-04-11T01:41:06.340Z,47.79
2018-04-11T01:42:06.752Z,47.72
2018-04-11T01:43:06.631Z,47.7
2018-04-11T01:44:06.349Z,47.77
2018-04-11T01:45:06.330Z,47.74
2018-04-11T01:46:06.334Z,47.77
2018-04-11T01:47:06.703Z,47.75
2018-04-11T01:48:06.564Z,47.74
2018-04-11T01:49:06.631Z,47.74
2018-04-11T01:50:06.350Z,47.78
2018-04-11T01:51:06.349Z,47.72
2018-04-11T01:52:06.335Z,47.79
2018-04-11T01:53:06.666Z,47.77
2018-04-11T01:54:06.327Z,47.74
2018-04-11T01:55:06.309Z,47.8
2018-04-11T01:56:06.302Z,47.76
2018-04-11T01:57:06.328Z,47.68
2018-04-11T01:58:06.341Z,47.71
2018-04-11T01:59:06.306Z,47.72
2018-04-11T02:00:06.409Z,47.68
2018-04-11T02:01:06.366Z,47.71
2018-04-11T02:02:06.400Z,47.76
2018-04-11T02:03:06.403Z,47.73
2018-04-11T02:04:06.310Z,47.68
2018-04-11T02:05:06.348Z,47.72
2018-04-11T02:06:06.503Z,47.72
2018-04-11T02:07:06.525Z,47.73
2018-04-11T02:08:06.323Z,47.76
2018-04-11T02:09:06.315Z,47.71
2018-04-11T02:10:06.397Z,47.71
2018-04-11T02:11:06.472Z,47.72
2018-04-11T02:12:06.385Z,47.67
2018-04-11T02:13:06.590Z,47.71
2018-04-11T02:14:06.680Z,47.72
2018-04-11T02:15:06.351Z,47.66
2018-04-11T02:16:06.337Z,47.73
2018-04-11T02:17:06.696Z,47.76
2018-04-11T02:18:06.595Z,47.73
2018-04-11T02:19:06.571Z,47.71
2018-04-11T02:20:06.324Z,47.71
2018-04-11T02:21:06.302Z,47.71
2018-04-11T02:22:06.520Z,47.75
2018-04-11T02:23:06.659Z,47.75
2018-04-11T02:24:06.576Z,47.68
2018-04-11T02:25:06.282Z,47.77
2018-04-11T02:26:06.327Z,47.75
2018-04-11T02:27:06.323Z,47.74
2018-04-11T02:28:06.415Z,47.69
2018-04-11T02:29:06.302Z,47.75
2018-04-11T02:30:06.328Z,47.69
2018-04-11T02:31:06.310Z,47.73
2018-04-11T02:32:06.827Z,47.75
2018-04-11T02:33:06.321Z,47.73
2018-04-11T02:34:06.288Z,47.71
2018-04-11T02:35:06.500Z,47.71
2018-04-11T02:36:06.405Z,47.73
2018-04-11T02:37:06.381Z,47.73
2018-04-11T02:38:06.315Z,47.74
2018-04-11T02:39:06.719Z,47.69
2018-04-11T02:40:06.352Z,47.73
2018-04-11T02:41:06.785Z,47.75
2018-04-11T02:42:06.375Z,47.75
2018-04-11T02:43:06.304Z,47.69
2018-04-11T02:44:06.634Z,47.73
2018-04-11T02:45:06.403Z,47.7
2018-04-11T02:46:06.335Z,47.72
2018-04-11T02:47:06.328Z,47.72
2018-04-11T02:48:06.863Z,47.68
2018-04-11T02:49:06.687Z,47.73
2018-04-11T02:50:06.466Z,47.71
2018-04-11T02:51:06.291Z,47.69
2018-04-11T02:52:06.365Z,47.72
2018-04-11T02:53:06.393Z,47.71
2018-04-11T02:54:06.546Z,47.68
2018-04-11T02:55:06.395Z,47.7
2018-04-11T02:56:06.453Z,47.73
2018-04-11T02:57:06.531Z,47.7
2018-04-11T02:58:06.293Z,47.73
2018-04-11T02:59:06.657Z,47.68
2018-04-11T03:00:06.360Z,47.72
2018-04-11T03:01:06.368Z,47.76
2018-04-11T03:02:06.381Z,47.69
2018-04-11T03:03:06.319Z,47.73
2018-04-11T03:04:06.709Z,47.71
2018-04-11T03:05:06.355Z,47.7
2018-04-11T03:06:06.563Z,47.7
2018-04-11T03:07:06.547Z,47.71
2018-04-11T03:08:06.631Z,47.7
2018-04-11T03:09:06.378Z,47.71
2018-04-11T03:10:06.832Z,47.68
2018-04-11T03:11:06.262Z,47.69
2018-04-11T03:12:06.814Z,47.64
2018-04-11T03:13:06.276Z,47.71
2018-04-11T03:14:06.344Z,47.7
2018-04-11T03:15:06.307Z,47.66
2018-04-11T03:16:06.266Z,47.65
2018-04-11T03:17:06.822Z,47.71
2018-04-11T03:18:06.306Z,47.64
2018-04-11T03:19:06.260Z,47.68
2018-04-11T03:20:06.343Z,47.68
2018-04-11T03:21:06.605Z,47.7
2018-04-11T03:22:06.654Z,47.7
2018-04-11T03:23:06.406Z,47.67
2018-04-11T03:24:06.569Z,47.66
2018-04-11T03:25:06.318Z,47.66
2018-04-11T03:26:06.563Z,47.69
2018-04-11T03:27:06.327Z,47.68
2018-04-11T03:28:06.758Z,47.68
2018-04-11T03:29:06.345Z,47.72
2018-04-11T03:30:06.354Z,47.68
2018-04-11T03:31:06.325Z,47.65
2018-04-11T03:32:06.347Z,47.68
2018-04-11T03:33:06.294Z,47.66
2018-04-11T03:34:06.315Z,47.64
2018-04-11T03:35:06.299Z,47.63
2018-04-11T03:36:06.295Z,47.66
2018-04-11T03:37:06.301Z,47.69
2018-04-11T03:38:06.294Z,47.7
2018-04-11T03:39:06.518Z,47.68
2018-04-11T03:40:06.275Z,47.66
2018-04-11T03:41:06.283Z,47.68
2018-04-11T03:42:06.890Z,47.63
2018-04-11T03:43:06.293Z,47.67
2018-04-11T03:44:06.309Z,47.7
2018-04-11T03:45:06.270Z,47.67
2018-04-11T03:46:06.293Z,47.69
2018-04-11T03:47:06.293Z,47.69
2018-04-11T03:48:06.731Z,47.68
2018-04-11T03:49:06.323Z,47.62
2018-04-11T03:50:06.290Z,47.62
2018-04-11T03:51:06.278Z,47.6
2018-04-11T03:52:06.775Z,47.6
2018-04-11T03:53:06.337Z,47.6
2018-04-11T03:54:06.511Z,47.59
2018-04-11T03:55:06.355Z,47.61
2018-04-11T03:56:06.612Z,47.57
2018-04-11T03:57:06.370Z,47.53
2018-04-11T03:58:06.317Z,47.53
2018-04-11T03:59:06.341Z,47.51
2018-04-11T04:00:06.380Z,47.45
2018-04-11T04:01:06.321Z,47.5
2018-04-11T04:02:06.311Z,47.45
2018-04-11T04:03:06.324Z,47.49
2018-04-11T04:04:06.286Z,47.46
2018-04-11T04:05:06.357Z,47.41
2018-04-11T04:06:06.299Z,47.4
2018-04-11T04:07:06.311Z,47.37
2018-04-11T04:08:06.291Z,47.4
2018-04-11T04:09:06.622Z,47.36
2018-04-11T04:10:06.359Z,47.24
2018-04-11T04:11:06.294Z,47.32
2018-04-11T04:12:06.757Z,47.26
2018-04-11T04:13:06.319Z,47.19
2018-04-11T04:14:06.343Z,47.15
2018-04-11T04:15:06.338Z,47.25
2018-04-11T04:16:06.745Z,47.1
2018-04-11T04:17:06.585Z,47.21
2018-04-11T04:18:06.261Z,47.1
2018-04-11T04:19:06.511Z,47.11
2018-04-11T04:20:06.308Z,47.07
2018-04-11T04:21:06.309Z,47.12
2018-04-11T04:22:06.621Z,47.1
2018-04-11T04:23:06.275Z,47.04
2018-04-11T04:24:06.637Z,47.26
2018-04-11T04:25:06.292Z,46.99
2018-04-11T04:26:06.500Z,47.04
2018-04-11T04:27:06.304Z,47.06
2018-04-11T04:28:06.336Z,47.06
2018-04-11T04:29:06.324Z,47.13
2018-04-11T04:30:06.265Z,47.13
2018-04-11T04:31:06.278Z,47.03
2018-04-11T04:32:06.350Z,47.01
2018-04-11T04:33:06.247Z,47.15
2018-04-11T04:34:06.457Z,47.11
2018-04-11T04:35:06.325Z,47.02
2018-04-11T04:36:06.368Z,47.14
2018-04-11T04:37:07.011Z,47.17
2018-04-11T04:38:06.305Z,47.05
2018-04-11T04:39:06.291Z,47.24
2018-04-11T04:40:06.634Z,47.16
2018-04-11T04:41:06.258Z,47.03
2018-04-11T04:42:06.470Z,47.16
2018-04-11T04:43:06.277Z,47.02
2018-04-11T04:44:06.358Z,47.1
2018-04-11T04:45:06.292Z,47.29
2018-04-11T04:46:06.439Z,47
2018-04-11T04:47:06.344Z,47.04
2018-04-11T04:48:06.301Z,47.29
2018-04-11T04:49:06.671Z,47.03
2018-04-11T04:50:06.304Z,47.03
2018-04-11T04:51:06.493Z,47.12
2018-04-11T04:52:06.902Z,47.03
2018-04-11T04:53:06.507Z,47.03
2018-04-11T04:54:06.379Z,47.08
2018-04-11T04:55:06.287Z,47.06
2018-04-11T04:56:06.311Z,47.04
2018-04-11T04:57:06.246Z,47.14
2018-04-11T04:58:06.431Z,47.08
2018-04-11T04:59:06.311Z,47.04
2018-04-11T05:00:06.280Z,47.05
2018-04-11T05:01:06.326Z,47.08
2018-04-11T05:02:06.309Z,47.02
2018-04-11T05:03:06.627Z,47.18
2018-04-11T05:04:06.239Z,47.13
2018-04-11T05:05:06.519Z,46.96
2018-04-11T05:06:06.690Z,47.03
2018-04-11T05:07:06.288Z,47
2018-04-11T05:08:06.282Z,47.12
2018-04-11T05:09:06.303Z,47.1
2018-04-11T05:10:06.235Z,47.16
2018-04-11T05:11:06.912Z,47
2018-04-11T05:12:06.254Z,47.06
2018-04-11T05:13:06.351Z,47.02
2018-04-11T05:14:06.251Z,46.93
2018-04-11T05:15:06.376Z,47.13
2018-04-11T05:16:06.316Z,46.97
2018-04-11T05:17:06.240Z,47.02
2018-04-11T05:18:06.370Z,47.17
2018-04-11T05:19:06.265Z,46.95
2018-04-11T05:20:06.249Z,47.08
2018-04-11T05:21:06.259Z,47.03
2018-04-11T05:22:06.275Z,46.95
2018-04-11T05:23:06.352Z,47.07
2018-04-11T05:24:06.366Z,47
2018-04-11T05:25:06.700Z,46.96
2018-04-11T05:26:06.240Z,47
2018-04-11T05:27:06.277Z,47.09
2018-04-11T05:28:06.278Z,46.87
2018-04-11T05:29:06.243Z,47.08
2018-04-11T05:30:06.230Z,47.01
2018-04-11T05:31:06.272Z,46.89
2018-04-11T05:32:06.278Z,47.08
2018-04-11T05:33:06.322Z,46.98
2018-04-11T05:34:06.685Z,46.89
2018-04-11T05:35:06.328Z,47.04
2018-04-11T05:36:06.234Z,47.03
2018-04-11T05:37:06.224Z,46.85
2018-04-11T05:38:06.226Z,47
2018-04-11T05:39:06.252Z,46.98
2018-04-11T05:40:06.245Z,46.89
2018-04-11T05:41:06.258Z,46.99
2018-04-11T05:42:06.513Z,46.95
2018-04-11T05:43:06.251Z,46.81
2018-04-11T05:44:06.758Z,46.95
2018-04-11T05:45:06.302Z,46.88
2018-04-11T05:46:06.249Z,46.61
2018-04-11T05:47:06.321Z,46.8
2018-04-11T05:48:06.232Z,47.13
2018-04-11T05:49:06.273Z,47.71
2018-04-11T05:50:06.282Z,47.61
2018-04-11T05:51:06.302Z,47.59
2018-04-11T05:52:06.266Z,47.52
2018-04-11T05:53:06.580Z,47.62
2018-04-11T05:54:06.237Z,47.59
2018-04-11T05:55:06.263Z,47.46
2018-04-11T05:56:06.218Z,47.51
2018-04-11T05:57:06.276Z,47.3
2018-04-11T05:58:06.351Z,47.23
2018-04-11T05:59:06.262Z,47.2
2018-04-11T06:00:06.238Z,47.23
2018-04-11T06:01:06.283Z,47.24
2018-04-11T06:02:06.225Z,46.95
2018-04-11T06:03:06.340Z,47.39
2018-04-11T06:04:06.238Z,47.29
2018-04-11T06:05:06.264Z,47.18
2018-04-11T06:06:06.267Z,47.06
2018-04-11T06:07:06.245Z,47.08
2018-04-11T06:08:06.256Z,46.97
2018-04-11T06:09:06.474Z,47.28
2018-04-11T06:10:06.225Z,47.09
2018-04-11T06:11:06.213Z,47.3
2018-04-11T06:12:06.261Z,47.37
2018-04-11T06:13:06.281Z,47.48
2018-04-11T06:14:06.422Z,47.59
2018-04-11T06:15:06.267Z,47.47
2018-04-11T06:16:06.372Z,47.24
2018-04-11T06:17:06.383Z,47.42
2018-04-11T06:18:06.273Z,48.08
2018-04-11T06:19:06.278Z,47.41
2018-04-11T06:20:06.394Z,47.63
2018-04-11T06:21:06.294Z,48.19
2018-04-11T06:22:06.242Z,47.62
2018-04-11T06:23:06.765Z,47.33
2018-04-11T06:24:06.404Z,47.54
2018-04-11T06:25:06.242Z,47.67
2018-04-11T06:26:06.331Z,47.58
2018-04-11T06:27:06.247Z,47.57
2018-04-11T06:28:06.546Z,47.41
2018-04-11T06:29:06.414Z,47.41
2018-04-11T06:30:06.463Z,47.45
2018-04-11T06:31:06.279Z,47.44
2018-04-11T06:32:06.249Z,47.46
2018-04-11T06:33:06.285Z,47.66
2018-04-11T06:34:06.285Z,48.01
2018-04-11T06:35:06.717Z,47.84
2018-04-11T06:36:06.206Z,47.88
2018-04-11T06:37:06.265Z,47.71
2018-04-11T06:38:06.257Z,47.73
2018-04-11T06:39:06.287Z,47.73
2018-04-11T06:40:06.228Z,47.53
2018-04-11T06:41:06.435Z,47.52
2018-04-11T06:42:06.655Z,47.55
2018-04-11T06:43:06.402Z,47.58
2018-04-11T06:44:06.281Z,47.55
2018-04-11T06:45:06.266Z,47.64
2018-04-11T06:46:06.281Z,47.63
2018-04-11T06:47:06.246Z,47.68
2018-04-11T06:48:06.275Z,47.77
2018-04-11T06:49:06.265Z,47.97
2018-04-11T06:50:06.289Z,48.04
2018-04-11T06:51:06.255Z,48.29
2018-04-11T06:52:06.202Z,48
2018-04-11T06:53:06.221Z,47.87
2018-04-11T06:54:06.245Z,47.84
2018-04-11T06:55:06.259Z,47.68
2018-04-11T06:56:06.241Z,47.78
2018-04-11T06:57:06.313Z,47.75
2018-04-11T06:58:06.220Z,47.67
2018-04-11T06:59:06.254Z,47.67
2018-04-11T07:00:06.273Z,47.61
2018-04-11T07:01:06.273Z,47.48
2018-04-11T07:02:06.348Z,47.6
2018-04-11T07:03:06.234Z,47.47
2018-04-11T07:04:06.242Z,47.35
2018-04-11T07:05:06.405Z,47.46
2018-04-11T07:06:06.238Z,47.13
2018-04-11T07:07:06.256Z,46.72
2018-04-11T07:08:06.251Z,47.47
2018-04-11T07:09:06.232Z,47.32
2018-04-11T07:10:06.245Z,47.28
2018-04-11T07:11:06.222Z,47.4
2018-04-11T07:12:06.218Z,47.45
2018-04-11T07:13:06.255Z,47.45
2018-04-11T07:14:06.991Z,47.49
2018-04-11T07:15:06.234Z,47.45
2018-04-11T07:16:06.213Z,47.35
2018-04-11T07:17:06.243Z,47.44
2018-04-11T07:18:06.216Z,47.39
2018-04-11T07:19:06.393Z,47.25
2018-04-11T07:20:06.258Z,47.4
2018-04-11T07:21:06.197Z,47.09
2018-04-11T07:22:06.238Z,47.12
2018-04-11T07:23:06.299Z,47.14
2018-04-11T07:24:06.404Z,47.09
2018-04-11T07:25:06.445Z,47.06
2018-04-11T07:26:06.252Z,47.37
2018-04-11T07:27:06.254Z,47.5
2018-04-11T07:28:06.214Z,47.48
2018-04-11T07:29:06.204Z,47.54
2018-04-11T07:30:06.244Z,47.55
2018-04-11T07:31:06.235Z,47.5
2018-04-11T07:32:06.213Z,47.5
2018-04-11T07:33:06.242Z,47.56
2018-04-11T07:34:06.246Z,47.43
2018-04-11T07:35:06.336Z,47.6
2018-04-11T07:36:06.343Z,47.62
2018-04-11T07:37:06.195Z,48
2018-04-11T07:38:06.365Z,47.94
2018-04-11T07:39:06.204Z,47.81
2018-04-11T07:40:06.919Z,47.75
2018-04-11T07:41:06.439Z,47.8
2018-04-11T07:42:06.253Z,47.77
2018-04-11T07:43:06.209Z,47.62
2018-04-11T07:44:06.334Z,47.7
2018-04-11T07:45:06.267Z,47.69
2018-04-11T07:46:07.098Z,47.69
2018-04-11T07:47:06.213Z,47.71
2018-04-11T07:48:06.226Z,47.69
2018-04-11T07:49:06.247Z,47.58
2018-04-11T07:50:06.247Z,47.63
2018-04-11T07:51:06.219Z,47.54
2018-04-11T07:52:06.227Z,47.55
2018-04-11T07:53:06.257Z,47.65
2018-04-11T07:54:06.756Z,47.6
2018-04-11T07:55:06.199Z,47.58
2018-04-11T07:56:06.218Z,47.57
2018-04-11T07:57:06.177Z,47.62
2018-04-11T07:58:06.213Z,47.56
2018-04-11T07:59:06.190Z,47.62
2018-04-11T08:00:06.182Z,47.59
2018-04-11T08:01:06.204Z,47.58
2018-04-11T08:02:06.217Z,47.49
2018-04-11T08:03:06.613Z,47.56
2018-04-11T08:04:06.371Z,47.52
2018-04-11T08:05:06.237Z,47.45
2018-04-11T08:06:06.210Z,47.57
2018-04-11T08:07:06.207Z,47.54
2018-04-11T08:08:06.346Z,47.62
2018-04-11T08:09:06.254Z,47.63
2018-04-11T08:10:06.786Z,47.46
2018-04-11T08:11:06.281Z,47.36
2018-04-11T08:12:06.214Z,47.41
2018-04-11T08:13:06.275Z,47.35
2018-04-11T08:14:06.215Z,47.51
2018-04-11T08:15:06.277Z,47.54
2018-04-11T08:16:06.174Z,47.42
2018-04-11T08:17:06.249Z,47.54
2018-04-11T08:18:06.274Z,47.5
2018-04-11T08:19:06.212Z,47.39
2018-04-11T08:20:06.172Z,47.5
2018-04-11T08:21:06.215Z,47.49
2018-04-11T08:22:06.231Z,47.41
2018-04-11T08:23:06.227Z,47.44
2018-04-11T08:24:06.227Z,47.42
2018-04-11T08:25:06.223Z,47.34
2018-04-11T08:26:06.338Z,47.41
2018-04-11T08:27:06.204Z,47.4
2018-04-11T08:28:06.233Z,47.4
2018-04-11T08:29:06.210Z,47.34
2018-04-11T08:30:06.218Z,47.31
2018-04-11T08:31:06.224Z,47.34
2018-04-11T08:32:06.219Z,47.39
2018-04-11T08:33:06.361Z,47.34
2018-04-11T08:34:06.261Z,47.31
2018-04-11T08:35:06.217Z,47.31
2018-04-11T08:36:06.172Z,47.35
2018-04-11T08:37:06.251Z,47.31
2018-04-11T08:38:06.251Z,47.33
2018-04-11T08:39:06.203Z,47.29
2018-04-11T08:40:06.239Z,47.31
2018-04-11T08:41:06.187Z,47.36
2018-04-11T08:42:06.231Z,47.36
2018-04-11T08:43:06.166Z,47.5
2018-04-11T08:44:06.230Z,47.44
2018-04-11T08:45:06.201Z,47.42
2018-04-11T08:46:06.178Z,47.45
2018-04-11T08:47:06.202Z,47.46
2018-04-11T08:48:06.252Z,47.43
2018-04-11T08:49:06.197Z,47.43
2018-04-11T08:50:06.188Z,47.52
2018-04-11T08:51:06.275Z,47.43
2018-04-11T08:52:06.236Z,47.5
2018-04-11T08:53:06.209Z,47.48
2018-04-11T08:54:06.230Z,47.42
2018-04-11T08:55:06.187Z,47.49
2018-04-11T08:56:06.207Z,47.48
2018-04-11T08:57:06.188Z,47.52
2018-04-11T08:58:06.208Z,47.8
2018-04-11T08:59:06.203Z,47.65
2018-04-11T09:00:06.220Z,47.54
2018-04-11T09:01:06.183Z,47.81
2018-04-11T09:02:06.236Z,47.76
2018-04-11T09:03:06.275Z,47.76
2018-04-11T09:04:06.216Z,47.7
2018-04-11T09:05:06.164Z,47.7
2018-04-11T09:06:06.238Z,47.77
2018-04-11T09:07:06.216Z,47.73
2018-04-11T09:08:06.302Z,47.72
2018-04-11T09:09:06.239Z,47.82
2018-04-11T09:10:06.180Z,47.79
2018-04-11T09:11:06.193Z,47.85
2018-04-11T09:12:06.273Z,47.91
2018-04-11T09:13:06.209Z,47.94
2018-04-11T09:14:06.156Z,48.01
2018-04-11T09:15:06.215Z,48.15
2018-04-11T09:16:06.169Z,47.99
2018-04-11T09:17:06.175Z,48.1
2018-04-11T09:18:06.174Z,48.03
2018-04-11T09:19:06.241Z,48.05
2018-04-11T09:20:06.220Z,48.05
2018-04-11T09:21:06.196Z,48.1
2018-04-11T09:22:06.224Z,48.17
2018-04-11T09:23:06.225Z,48.12
2018-04-11T09:24:06.273Z,48.05
2018-04-11T09:25:06.335Z,48.04
2018-04-11T09:26:06.818Z,48.09
2018-04-11T09:27:06.744Z,48.06
2018-04-11T09:28:06.179Z,48
2018-04-11T09:29:06.169Z,48.15
2018-04-11T09:30:06.154Z,48.12
2018-04-11T09:31:06.157Z,48.04
2018-04-11T09:32:06.154Z,48.06
2018-04-11T09:33:06.594Z,48.02
2018-04-11T09:34:06.224Z,48
2018-04-11T09:35:06.132Z,48.14
2018-04-11T09:36:06.165Z,48.07
2018-04-11T09:37:06.171Z,48.09
2018-04-11T09:38:06.209Z,48.03
2018-04-11T09:39:06.197Z,48.05
2018-04-11T09:40:06.303Z,48.09
2018-04-11T09:41:06.221Z,48
2018-04-11T09:42:06.166Z,48
2018-04-11T09:43:06.207Z,48.05
2018-04-11T09:44:06.180Z,48.01
2018-04-11T09:45:06.211Z,48.09
2018-04-11T09:46:06.257Z,48.04
2018-04-11T09:47:06.172Z,47.97
2018-04-11T09:48:06.192Z,48.03
2018-04-11T09:49:06.248Z,47.95
2018-04-11T09:50:06.210Z,47.99
2018-04-11T09:51:06.256Z,48.01
2018-04-11T09:52:06.185Z,47.95
2018-04-11T09:53:06.214Z,47.97
2018-04-11T09:54:06.176Z,47.92
2018-04-11T09:55:06.168Z,47.91
2018-04-11T09:56:06.171Z,47.95
2018-04-11T09:57:06.175Z,48
2018-04-11T09:58:06.355Z,47.86
2018-04-11T09:59:06.173Z,47.9
2018-04-11T10:00:06.180Z,47.89
2018-04-11T10:01:06.167Z,47.83
2018-04-11T10:02:06.223Z,47.83
2018-04-11T10:03:06.236Z,47.9
2018-04-11T10:04:06.149Z,47.82
2018-04-11T10:05:06.247Z,47.83
2018-04-11T10:06:06.195Z,47.86
2018-04-11T10:07:06.177Z,47.77
2018-04-11T10:08:06.190Z,47.79
2018-04-11T10:09:06.181Z,47.79
2018-04-11T10:10:06.183Z,47.72
2018-04-11T10:11:06.168Z,47.75
2018-04-11T10:12:06.181Z,47.75
2018-04-11T10:13:06.309Z,47.72
2018-04-11T10:14:06.247Z,47.75
2018-04-11T10:15:06.170Z,47.75
2018-04-11T10:16:06.204Z,47.62
2018-04-11T10:17:06.187Z,47.73
2018-04-11T10:18:06.358Z,47.71
2018-04-11T10:19:06.700Z,47.61
2018-04-11T10:20:06.168Z,47.6
2018-04-11T10:21:06.307Z,47.67
2018-04-11T10:22:06.222Z,47.58
2018-04-11T10:23:06.192Z,47.63
2018-04-11T10:24:06.181Z,47.62
2018-04-11T10:25:06.217Z,47.7
2018-04-11T10:26:06.176Z,47.75
2018-04-11T10:27:06.192Z,47.67
2018-04-11T10:28:06.447Z,47.72
2018-04-11T10:29:06.202Z,47.7
2018-04-11T10:30:06.224Z,47.67
2018-04-11T10:31:06.215Z,47.76
2018-04-11T10:32:06.334Z,47.72
2018-04-11T10:33:06.283Z,47.69
2018-04-11T10:34:06.385Z,47.71
2018-04-11T10:35:06.174Z,47.72
2018-04-11T10:36:06.254Z,47.63
2018-04-11T10:37:06.206Z,47.69
2018-04-11T10:38:06.283Z,47.69
2018-04-11T10:39:06.214Z,47.64
2018-04-11T10:40:06.389Z,47.67
2018-04-11T10:41:06.188Z,47.67
2018-04-11T10:42:06.150Z,47.65
2018-04-11T10:43:06.300Z,47.72
2018-04-11T10:44:06.152Z,47.63
2018-04-11T10:45:06.219Z,47.61
2018-04-11T10:46:06.167Z,47.67
2018-04-11T10:47:06.176Z,47.63
2018-04-11T10:48:06.207Z,47.61
2018-04-11T10:49:06.165Z,47.63
2018-04-11T10:50:06.182Z,47.62
2018-04-11T10:51:06.209Z,47.58
2018-04-11T10:52:06.176Z,47.68
2018-04-11T10:53:06.168Z,47.67
2018-04-11T10:54:06.159Z,47.65
2018-04-11T10:55:06.190Z,47.65
2018-04-11T10:56:06.157Z,47.63
2018-04-11T10:57:06.161Z,47.62
2018-04-11T10:58:06.174Z,47.64
2018-04-11T10:59:06.158Z,47.65
2018-04-11T11:00:06.165Z,47.6
2018-04-11T11:01:06.232Z,47.67
2018-04-11T11:02:06.179Z,47.69
2018-04-11T11:03:06.140Z,47.61
2018-04-11T11:04:06.154Z,47.62
2018-04-11T11:05:06.157Z,47.62
2018-04-11T11:06:06.173Z,47.57
2018-04-11T11:07:06.173Z,47.59
2018-04-11T11:08:06.259Z,47.59
2018-04-11T11:09:06.139Z,47.54
2018-04-11T11:10:06.166Z,47.55
2018-04-11T11:11:06.204Z,47.55
2018-04-11T11:12:06.323Z,47.49
2018-04-11T11:13:06.172Z,47.57
2018-04-11T11:14:06.204Z,47.48
2018-04-11T11:15:06.154Z,47.44
2018-04-11T11:16:06.146Z,47.53
2018-04-11T11:17:06.129Z,47.45
2018-04-11T11:18:06.154Z,47.4
2018-04-11T11:19:06.178Z,47.52
2018-04-11T11:20:06.239Z,47.44
2018-04-11T11:21:06.282Z,47.46
2018-04-11T11:22:06.164Z,47.51
2018-04-11T11:23:06.201Z,47.45
2018-04-11T11:24:06.168Z,47.47
2018-04-11T11:25:06.159Z,47.52
2018-04-11T11:26:06.314Z,47.39
2018-04-11T11:27:06.232Z,47.49
2018-04-11T11:28:06.204Z,47.5
2018-04-11T11:29:06.190Z,47.5
2018-04-11T11:30:06.116Z,47.5
2018-04-11T11:31:06.131Z,47.47
2018-04-11T11:32:06.375Z,47.45
2018-04-11T11:33:06.175Z,47.5
2018-04-11T11:34:06.151Z,47.52
2018-04-11T11:35:06.170Z,47.46
2018-04-11T11:36:06.181Z,47.5
2018-04-11T11:37:06.137Z,47.49
2018-04-11T11:38:06.146Z,47.5
2018-04-11T11:39:06.123Z,47.48
2018-04-11T11:40:06.146Z,47.51
2018-04-11T11:41:06.319Z,47.48
2018-04-11T11:42:06.155Z,47.45
2018-04-11T11:43:06.159Z,47.45
2018-04-11T11:44:06.196Z,47.43
2018-04-11T11:45:06.144Z,47.44
2018-04-11T11:46:06.177Z,47.47
2018-04-11T11:47:06.259Z,47.41
2018-04-11T11:48:06.132Z,47.46
2018-04-11T11:49:06.308Z,47.47
2018-04-11T11:50:06.157Z,47.42
2018-04-11T11:51:06.136Z,47.42
2018-04-11T11:52:06.680Z,47.46
2018-04-11T11:53:06.123Z,47.43
2018-04-11T11:54:06.240Z,47.39
2018-04-11T11:55:06.190Z,47.44
2018-04-11T11:56:06.137Z,47.55
2018-04-11T11:57:06.129Z,47.49
2018-04-11T11:58:06.141Z,47.76
2018-04-11T11:59:06.335Z,47.68
2018-04-11T12:00:06.164Z,47.69
2018-04-11T12:01:06.173Z,47.56
2018-04-11T12:02:06.118Z,47.59
2018-04-11T12:03:06.112Z,47.57
2018-04-11T12:04:06.132Z,47.54
2018-04-11T12:05:06.116Z,47.6
2018-04-11T12:06:06.154Z,47.52
2018-04-11T12:07:06.149Z,47.54
2018-04-11T12:08:06.154Z,47.53
2018-04-11T12:09:06.294Z,47.53
2018-04-11T12:10:06.144Z,47.46
2018-04-11T12:11:06.118Z,47.54
2018-04-11T12:12:06.105Z,47.5
2018-04-11T12:13:06.374Z,47.44
2018-04-11T12:14:06.124Z,47.5
2018-04-11T12:15:06.099Z,47.53
2018-04-11T12:16:06.178Z,47.4
2018-04-11T12:17:06.168Z,47.49
2018-04-11T12:18:06.144Z,47.36
2018-04-11T12:19:06.267Z,47.39
2018-04-11T12:20:06.275Z,47.38
2018-04-11T12:21:06.167Z,47.35
2018-04-11T12:22:06.176Z,47.36
2018-04-11T12:23:06.161Z,47.46
2018-04-11T12:24:06.492Z,47.76
2018-04-11T12:25:06.712Z,47.79
2018-04-11T12:26:06.108Z,47.83
2018-04-11T12:27:06.103Z,47.86
2018-04-11T12:28:06.260Z,47.93
2018-04-11T12:29:06.162Z,47.99
2018-04-11T12:30:06.148Z,48.15
2018-04-11T12:31:06.143Z,48.08
2018-04-11T12:32:06.667Z,47.95
2018-04-11T12:33:06.254Z,48.06
2018-04-11T12:34:06.286Z,48.24
2018-04-11T12:35:06.125Z,48.1
2018-04-11T12:36:06.191Z,48.17
2018-04-11T12:37:06.455Z,48.06
2018-04-11T12:38:06.188Z,48.05
2018-04-11T12:39:06.139Z,48.03
2018-04-11T12:40:06.111Z,47.95
2018-04-11T12:41:06.118Z,47.95
2018-04-11T12:42:06.317Z,47.97
2018-04-11T12:43:06.149Z,47.91
2018-04-11T12:44:06.174Z,47.89
2018-04-11T12:45:06.304Z,47.95
2018-04-11T12:46:06.123Z,47.85
2018-04-11T12:47:06.141Z,47.97
2018-04-11T12:48:06.488Z,47.91
2018-04-11T12:49:06.173Z,47.85
2018-04-11T12:50:06.158Z,47.92
2018-04-11T12:51:06.187Z,47.88
2018-04-11T12:52:06.147Z,47.74
2018-04-11T12:53:06.129Z,47.94
2018-04-11T12:54:06.154Z,48.08
2018-04-11T12:55:06.124Z,48.1
2018-04-11T12:56:06.126Z,47.91